sensor_id;sensor_type;location;lat;lon;timestamp;temperature;humidity
37478;DHT22;23334;54.316;10.182;2023-03-01T00:01:01;0.50;99.90
37478;DHT22;23334;54.316;10.182;2023-03-01T00:05:53;0.40;99.90
37478;DHT22;23334;54.316;10.182;2023-03-01T00:08:18;0.30;99.90
37478;DHT22;23334;54.316;10.182;2023-03-01T00:10:44;0.30;99.90
37478;DHT22;23334;54.316;10.182;2023-03-01T00:13:10;0.30;99.90
37478;DHT22;23334;54.316;10.182;2023-03-01T00:15:38;0.30;99.90
37478;DHT22;23334;54.316;10.182;2023-03-01T00:18:04;0.20;99.90
37478;DHT22;23334;54.316;10.182;2023-03-01T00:20:30;0.10;99.90
37478;DHT22;23334;54.316;10.182;2023-03-01T00:22:55;0.30;99.90
37478;DHT22;23334;54.316;10.182;2023-03-01T00:25:21;0.00;99.90
37478;DHT22;23334;54.316;10.182;2023-03-01T00:27:47;-0.10;99.90
37478;DHT22;23334;54.316;10.182;2023-03-01T00:30:15;0.00;99.90
37478;DHT22;23334;54.316;10.182;2023-03-01T00:32:43;0.00;99.90
37478;DHT22;23334;54.316;10.182;2023-03-01T00:35:10;0.00;99.90
37478;DHT22;23334;54.316;10.182;2023-03-01T00:40:01;-0.10;99.90
37478;DHT22;23334;54.316;10.182;2023-03-01T00:42:26;-0.30;99.90
37478;DHT22;23334;54.316;10.182;2023-03-01T00:44:52;-0.20;99.90
37478;DHT22;23334;54.316;10.182;2023-03-01T00:47:17;-0.40;99.90
37478;DHT22;23334;54.316;10.182;2023-03-01T00:52:09;-0.30;99.90
37478;DHT22;23334;54.316;10.182;2023-03-01T00:54:34;-0.30;99.90
37478;DHT22;23334;54.316;10.182;2023-03-01T00:57:00;-0.40;99.90
37478;DHT22;23334;54.316;10.182;2023-03-01T01:04:17;-0.60;99.90
37478;DHT22;23334;54.316;10.182;2023-03-01T01:06:46;-0.70;99.90
37478;DHT22;23334;54.316;10.182;2023-03-01T01:09:15;-0.70;99.90
37478;DHT22;23334;54.316;10.182;2023-03-01T01:11:48;-0.80;99.90
37478;DHT22;23334;54.316;10.182;2023-03-01T01:14:14;-0.60;99.90
37478;DHT22;23334;54.316;10.182;2023-03-01T01:16:41;-0.70;99.90
37478;DHT22;23334;54.316;10.182;2023-03-01T01:19:07;-0.70;99.90
37478;DHT22;23334;54.316;10.182;2023-03-01T01:23:58;-0.80;99.90
37478;DHT22;23334;54.316;10.182;2023-03-01T01:26:30;-0.90;99.90
37478;DHT22;23334;54.316;10.182;2023-03-01T01:28:56;-0.90;99.90
37478;DHT22;23334;54.316;10.182;2023-03-01T01:31:22;-1.10;99.90
37478;DHT22;23334;54.316;10.182;2023-03-01T01:33:49;-0.90;99.90
37478;DHT22;23334;54.316;10.182;2023-03-01T01:36:16;-1.00;99.90
37478;DHT22;23334;54.316;10.182;2023-03-01T01:38:41;-1.10;99.90
37478;DHT22;23334;54.316;10.182;2023-03-01T01:43:42;-1.10;99.90
37478;DHT22;23334;54.316;10.182;2023-03-01T01:49:02;-0.90;99.90
37478;DHT22;23334;54.316;10.182;2023-03-01T01:51:32;-0.90;99.90
37478;DHT22;23334;54.316;10.182;2023-03-01T01:54:11;-0.80;99.90
37478;DHT22;23334;54.316;10.182;2023-03-01T01:56:40;-0.80;99.90
37478;DHT22;23334;54.316;10.182;2023-03-01T01:59:09;-0.90;99.90
37478;DHT22;23334;54.316;10.182;2023-03-01T02:01:36;-0.80;99.90
37478;DHT22;23334;54.316;10.182;2023-03-01T02:06:32;-0.60;99.90
37478;DHT22;23334;54.316;10.182;2023-03-01T02:09:01;-0.80;99.90
37478;DHT22;23334;54.316;10.182;2023-03-01T02:11:29;-0.70;99.90
37478;DHT22;23334;54.316;10.182;2023-03-01T02:13:55;-0.50;99.90
37478;DHT22;23334;54.316;10.182;2023-03-01T02:16:20;-0.60;99.90
37478;DHT22;23334;54.316;10.182;2023-03-01T02:18:46;-0.60;99.90
37478;DHT22;23334;54.316;10.182;2023-03-01T02:21:37;-0.60;99.90
37478;DHT22;23334;54.316;10.182;2023-03-01T02:24:14;-0.40;99.90
37478;DHT22;23334;54.316;10.182;2023-03-01T02:26:47;-0.50;99.90
37478;DHT22;23334;54.316;10.182;2023-03-01T02:29:13;-0.50;99.90
37478;DHT22;23334;54.316;10.182;2023-03-01T02:31:39;-0.50;99.90
37478;DHT22;23334;54.316;10.182;2023-03-01T02:34:12;-0.30;99.90
37478;DHT22;23334;54.316;10.182;2023-03-01T02:36:44;-0.50;99.90
37478;DHT22;23334;54.316;10.182;2023-03-01T02:39:14;-0.30;99.90
37478;DHT22;23334;54.316;10.182;2023-03-01T02:41:47;-0.60;99.90
37478;DHT22;23334;54.316;10.182;2023-03-01T02:44:14;-0.30;99.90
37478;DHT22;23334;54.316;10.182;2023-03-01T02:46:46;-0.30;99.90
37478;DHT22;23334;54.316;10.182;2023-03-01T02:49:20;-0.40;99.90
37478;DHT22;23334;54.316;10.182;2023-03-01T02:52:14;-0.40;99.90
37478;DHT22;23334;54.316;10.182;2023-03-01T02:55:10;-0.20;99.90
37478;DHT22;23334;54.316;10.182;2023-03-01T02:57:40;1.70;99.90
37478;DHT22;23334;54.316;10.182;2023-03-01T03:00:19;-0.40;99.90
37478;DHT22;23334;54.316;10.182;2023-03-01T03:02:51;-0.20;99.90
37478;DHT22;23334;54.316;10.182;2023-03-01T03:05:26;-0.20;99.90
37478;DHT22;23334;54.316;10.182;2023-03-01T03:07:53;-0.40;99.90
37478;DHT22;23334;54.316;10.182;2023-03-01T03:10:22;-0.30;99.90
37478;DHT22;23334;54.316;10.182;2023-03-01T03:12:55;-0.30;99.90
37478;DHT22;23334;54.316;10.182;2023-03-01T03:15:22;-0.20;99.90
37478;DHT22;23334;54.316;10.182;2023-03-01T03:17:49;-0.30;99.90
37478;DHT22;23334;54.316;10.182;2023-03-01T03:20:17;-0.40;99.90
37478;DHT22;23334;54.316;10.182;2023-03-01T03:22:51;-0.30;99.90
37478;DHT22;23334;54.316;10.182;2023-03-01T03:25:17;-0.20;99.90
37478;DHT22;23334;54.316;10.182;2023-03-01T03:27:44;-0.30;99.90
37478;DHT22;23334;54.316;10.182;2023-03-01T03:30:12;-0.40;99.90
37478;DHT22;23334;54.316;10.182;2023-03-01T03:32:40;-0.30;99.90
37478;DHT22;23334;54.316;10.182;2023-03-01T03:35:07;-0.20;99.90
37478;DHT22;23334;54.316;10.182;2023-03-01T03:37:39;-0.20;99.90
37478;DHT22;23334;54.316;10.182;2023-03-01T03:40:25;-0.50;99.90
37478;DHT22;23334;54.316;10.182;2023-03-01T03:42:50;-0.30;99.90
37478;DHT22;23334;54.316;10.182;2023-03-01T03:47:45;-1.10;99.90
37478;DHT22;23334;54.316;10.182;2023-03-01T03:50:12;-0.10;99.90
37478;DHT22;23334;54.316;10.182;2023-03-01T03:52:39;-0.30;99.90
37478;DHT22;23334;54.316;10.182;2023-03-01T03:55:07;-0.10;99.90
37478;DHT22;23334;54.316;10.182;2023-03-01T03:57:37;0.10;99.90
37478;DHT22;23334;54.316;10.182;2023-03-01T04:00:04;-0.20;99.90
37478;DHT22;23334;54.316;10.182;2023-03-01T04:02:31;0.00;99.90
37478;DHT22;23334;54.316;10.182;2023-03-01T04:04:56;0.00;99.90
37478;DHT22;23334;54.316;10.182;2023-03-01T04:07:22;-0.10;99.90
37478;DHT22;23334;54.316;10.182;2023-03-01T04:09:47;-0.40;99.90
37478;DHT22;23334;54.316;10.182;2023-03-01T04:12:13;0.10;99.90
37478;DHT22;23334;54.316;10.182;2023-03-01T04:14:38;0.00;99.90
37478;DHT22;23334;54.316;10.182;2023-03-01T04:17:04;-0.10;99.90
37478;DHT22;23334;54.316;10.182;2023-03-01T04:19:31;-0.20;99.90
37478;DHT22;23334;54.316;10.182;2023-03-01T04:22:05;0.00;99.90
37478;DHT22;23334;54.316;10.182;2023-03-01T04:24:35;0.00;99.90
37478;DHT22;23334;54.316;10.182;2023-03-01T04:27:01;0.00;99.90
37478;DHT22;23334;54.316;10.182;2023-03-01T04:29:27;0.10;99.90
37478;DHT22;23334;54.316;10.182;2023-03-01T04:31:52;-0.10;99.90
37478;DHT22;23334;54.316;10.182;2023-03-01T04:34:18;-0.20;99.90
37478;DHT22;23334;54.316;10.182;2023-03-01T04:36:43;-0.20;99.90
37478;DHT22;23334;54.316;10.182;2023-03-01T04:39:09;-0.10;99.90
37478;DHT22;23334;54.316;10.182;2023-03-01T04:41:38;-0.30;99.90
37478;DHT22;23334;54.316;10.182;2023-03-01T04:44:05;-0.20;99.90
37478;DHT22;23334;54.316;10.182;2023-03-01T04:46:30;-0.30;99.90
37478;DHT22;23334;54.316;10.182;2023-03-01T04:48:57;-0.40;99.90
37478;DHT22;23334;54.316;10.182;2023-03-01T04:51:23;-0.50;99.90
37478;DHT22;23334;54.316;10.182;2023-03-01T04:53:49;-0.20;99.90
37478;DHT22;23334;54.316;10.182;2023-03-01T04:56:15;-0.40;99.90
37478;DHT22;23334;54.316;10.182;2023-03-01T04:58:41;-0.40;99.90
37478;DHT22;23334;54.316;10.182;2023-03-01T05:01:18;-0.40;99.90
37478;DHT22;23334;54.316;10.182;2023-03-01T05:03:49;-0.30;99.90
37478;DHT22;23334;54.316;10.182;2023-03-01T05:06:15;-0.30;99.90
37478;DHT22;23334;54.316;10.182;2023-03-01T05:08:42;-0.30;99.90
37478;DHT22;23334;54.316;10.182;2023-03-01T05:11:08;-0.30;99.90
37478;DHT22;23334;54.316;10.182;2023-03-01T05:13:35;-0.40;99.90
37478;DHT22;23334;54.316;10.182;2023-03-01T05:16:02;-0.40;99.90
37478;DHT22;23334;54.316;10.182;2023-03-01T05:18:29;-0.40;99.90
37478;DHT22;23334;54.316;10.182;2023-03-01T05:21:01;-0.40;99.90
37478;DHT22;23334;54.316;10.182;2023-03-01T05:23:28;-0.40;99.90
37478;DHT22;23334;54.316;10.182;2023-03-01T05:25:54;-0.40;99.90
37478;DHT22;23334;54.316;10.182;2023-03-01T05:28:20;-0.50;99.90
37478;DHT22;23334;54.316;10.182;2023-03-01T05:30:46;-0.40;99.90
37478;DHT22;23334;54.316;10.182;2023-03-01T05:33:12;-0.50;99.90
37478;DHT22;23334;54.316;10.182;2023-03-01T05:35:42;-0.40;99.90
37478;DHT22;23334;54.316;10.182;2023-03-01T05:38:11;-0.60;99.90
37478;DHT22;23334;54.316;10.182;2023-03-01T05:40:44;-0.40;99.90
37478;DHT22;23334;54.316;10.182;2023-03-01T05:43:10;-0.40;99.90
37478;DHT22;23334;54.316;10.182;2023-03-01T05:45:37;-0.40;99.90
37478;DHT22;23334;54.316;10.182;2023-03-01T05:48:03;-0.50;99.90
37478;DHT22;23334;54.316;10.182;2023-03-01T05:50:33;-0.30;99.90
37478;DHT22;23334;54.316;10.182;2023-03-01T05:53:25;-0.50;99.90
37478;DHT22;23334;54.316;10.182;2023-03-01T05:55:52;-0.40;99.90
37478;DHT22;23334;54.316;10.182;2023-03-01T05:58:19;-0.30;99.90
37478;DHT22;23334;54.316;10.182;2023-03-01T06:00:47;-0.50;99.90
37478;DHT22;23334;54.316;10.182;2023-03-01T06:03:14;0.10;99.90
37478;DHT22;23334;54.316;10.182;2023-03-01T06:05:41;-0.30;99.90
37478;DHT22;23334;54.316;10.182;2023-03-01T06:08:08;-0.40;99.90
37478;DHT22;23334;54.316;10.182;2023-03-01T06:10:34;-0.40;99.90
37478;DHT22;23334;54.316;10.182;2023-03-01T06:13:00;-0.30;99.90
37478;DHT22;23334;54.316;10.182;2023-03-01T06:15:25;-0.40;99.90
37478;DHT22;23334;54.316;10.182;2023-03-01T06:17:53;-0.20;99.90
37478;DHT22;23334;54.316;10.182;2023-03-01T06:20:21;-0.20;99.90
37478;DHT22;23334;54.316;10.182;2023-03-01T06:22:48;-0.40;99.90
37478;DHT22;23334;54.316;10.182;2023-03-01T06:25:17;-0.40;99.90
37478;DHT22;23334;54.316;10.182;2023-03-01T06:27:43;-0.20;99.90
37478;DHT22;23334;54.316;10.182;2023-03-01T06:30:10;-0.40;99.90
37478;DHT22;23334;54.316;10.182;2023-03-01T06:32:37;-0.10;99.90
37478;DHT22;23334;54.316;10.182;2023-03-01T06:35:04;-0.20;99.90
37478;DHT22;23334;54.316;10.182;2023-03-01T06:37:30;-0.20;99.90
37478;DHT22;23334;54.316;10.182;2023-03-01T06:39:56;-0.20;99.90
37478;DHT22;23334;54.316;10.182;2023-03-01T06:42:21;0.00;99.90
37478;DHT22;23334;54.316;10.182;2023-03-01T06:44:47;-0.10;99.90
37478;DHT22;23334;54.316;10.182;2023-03-01T06:47:12;0.10;99.90
37478;DHT22;23334;54.316;10.182;2023-03-01T06:49:39;0.40;99.90
37478;DHT22;23334;54.316;10.182;2023-03-01T06:52:04;0.20;99.90
37478;DHT22;23334;54.316;10.182;2023-03-01T06:54:30;0.00;99.90
37478;DHT22;23334;54.316;10.182;2023-03-01T06:56:55;0.10;99.90
37478;DHT22;23334;54.316;10.182;2023-03-01T06:59:21;0.10;99.90
37478;DHT22;23334;54.316;10.182;2023-03-01T07:01:46;0.10;99.90
37478;DHT22;23334;54.316;10.182;2023-03-01T07:04:14;0.20;99.90
37478;DHT22;23334;54.316;10.182;2023-03-01T07:06:40;0.50;99.90
37478;DHT22;23334;54.316;10.182;2023-03-01T07:09:05;0.20;99.90
37478;DHT22;23334;54.316;10.182;2023-03-01T07:11:31;0.80;99.90
37478;DHT22;23334;54.316;10.182;2023-03-01T07:13:57;0.60;99.90
37478;DHT22;23334;54.316;10.182;2023-03-01T07:16:23;0.40;99.90
37478;DHT22;23334;54.316;10.182;2023-03-01T07:18:49;0.60;99.90
37478;DHT22;23334;54.316;10.182;2023-03-01T07:21:15;0.60;99.90
37478;DHT22;23334;54.316;10.182;2023-03-01T07:23:41;1.30;99.90
37478;DHT22;23334;54.316;10.182;2023-03-01T07:26:07;0.90;99.90
37478;DHT22;23334;54.316;10.182;2023-03-01T07:28:33;1.00;99.90
37478;DHT22;23334;54.316;10.182;2023-03-01T07:31:05;1.00;99.90
37478;DHT22;23334;54.316;10.182;2023-03-01T07:33:32;0.70;99.90
37478;DHT22;23334;54.316;10.182;2023-03-01T07:35:59;1.40;99.90
37478;DHT22;23334;54.316;10.182;2023-03-01T07:38:25;1.00;99.90
37478;DHT22;23334;54.316;10.182;2023-03-01T07:40:51;1.20;99.90
37478;DHT22;23334;54.316;10.182;2023-03-01T07:43:17;1.40;99.90
37478;DHT22;23334;54.316;10.182;2023-03-01T07:45:42;1.70;99.90
37478;DHT22;23334;54.316;10.182;2023-03-01T07:48:08;1.80;99.90
37478;DHT22;23334;54.316;10.182;2023-03-01T07:50:33;1.90;99.90
37478;DHT22;23334;54.316;10.182;2023-03-01T07:52:59;2.00;99.90
37478;DHT22;23334;54.316;10.182;2023-03-01T07:55:25;2.00;99.90
37478;DHT22;23334;54.316;10.182;2023-03-01T07:57:50;1.90;99.90
37478;DHT22;23334;54.316;10.182;2023-03-01T08:00:16;1.90;99.90
37478;DHT22;23334;54.316;10.182;2023-03-01T08:02:41;2.20;99.90
37478;DHT22;23334;54.316;10.182;2023-03-01T08:05:08;2.10;99.90
37478;DHT22;23334;54.316;10.182;2023-03-01T08:07:35;2.20;99.90
37478;DHT22;23334;54.316;10.182;2023-03-01T08:10:01;1.90;99.90
37478;DHT22;23334;54.316;10.182;2023-03-01T08:12:26;1.80;99.90
37478;DHT22;23334;54.316;10.182;2023-03-01T08:14:53;2.10;99.90
37478;DHT22;23334;54.316;10.182;2023-03-01T08:17:19;2.10;99.90
37478;DHT22;23334;54.316;10.182;2023-03-01T08:19:47;2.20;99.90
37478;DHT22;23334;54.316;10.182;2023-03-01T08:22:13;2.10;99.90
37478;DHT22;23334;54.316;10.182;2023-03-01T08:24:38;2.50;99.90
37478;DHT22;23334;54.316;10.182;2023-03-01T08:27:04;2.60;99.90
37478;DHT22;23334;54.316;10.182;2023-03-01T08:29:32;2.70;99.90
37478;DHT22;23334;54.316;10.182;2023-03-01T08:31:57;2.70;99.90
37478;DHT22;23334;54.316;10.182;2023-03-01T08:34:23;2.70;99.90
37478;DHT22;23334;54.316;10.182;2023-03-01T08:36:49;2.50;99.90
37478;DHT22;23334;54.316;10.182;2023-03-01T08:39:18;2.60;99.90
37478;DHT22;23334;54.316;10.182;2023-03-01T08:41:45;2.30;99.90
37478;DHT22;23334;54.316;10.182;2023-03-01T08:44:13;2.20;99.90
37478;DHT22;23334;54.316;10.182;2023-03-01T08:46:42;2.50;99.90
37478;DHT22;23334;54.316;10.182;2023-03-01T08:49:15;2.10;99.90
37478;DHT22;23334;54.316;10.182;2023-03-01T08:51:42;2.40;99.90
37478;DHT22;23334;54.316;10.182;2023-03-01T08:54:11;1.90;99.90
37478;DHT22;23334;54.316;10.182;2023-03-01T08:56:38;1.80;99.90
37478;DHT22;23334;54.316;10.182;2023-03-01T08:59:04;2.10;99.90
37478;DHT22;23334;54.316;10.182;2023-03-01T09:01:30;2.00;99.90
37478;DHT22;23334;54.316;10.182;2023-03-01T09:03:55;2.20;99.90
37478;DHT22;23334;54.316;10.182;2023-03-01T09:06:21;2.10;99.90
37478;DHT22;23334;54.316;10.182;2023-03-01T09:08:48;2.10;99.90
37478;DHT22;23334;54.316;10.182;2023-03-01T09:11:16;2.00;99.90
37478;DHT22;23334;54.316;10.182;2023-03-01T09:13:43;2.20;99.90
37478;DHT22;23334;54.316;10.182;2023-03-01T09:16:10;1.90;99.90
37478;DHT22;23334;54.316;10.182;2023-03-01T09:18:35;3.20;99.90
37478;DHT22;23334;54.316;10.182;2023-03-01T09:21:09;2.30;99.90
37478;DHT22;23334;54.316;10.182;2023-03-01T09:23:36;2.50;99.90
37478;DHT22;23334;54.316;10.182;2023-03-01T09:26:05;2.30;99.90
37478;DHT22;23334;54.316;10.182;2023-03-01T09:28:30;2.30;99.90
37478;DHT22;23334;54.316;10.182;2023-03-01T09:31:00;2.30;99.90
37478;DHT22;23334;54.316;10.182;2023-03-01T09:33:27;2.30;99.90
37478;DHT22;23334;54.316;10.182;2023-03-01T09:36:01;2.50;99.90
37478;DHT22;23334;54.316;10.182;2023-03-01T09:38:28;2.30;99.90
37478;DHT22;23334;54.316;10.182;2023-03-01T09:40:53;2.50;99.90
37478;DHT22;23334;54.316;10.182;2023-03-01T09:43:42;2.40;99.90
37478;DHT22;23334;54.316;10.182;2023-03-01T09:46:10;2.80;99.90
37478;DHT22;23334;54.316;10.182;2023-03-01T09:48:46;2.60;99.90
37478;DHT22;23334;54.316;10.182;2023-03-01T09:51:22;3.10;99.90
37478;DHT22;23334;54.316;10.182;2023-03-01T09:53:49;3.10;99.90
37478;DHT22;23334;54.316;10.182;2023-03-01T09:56:22;2.90;99.90
37478;DHT22;23334;54.316;10.182;2023-03-01T10:01:33;3.10;99.90
37478;DHT22;23334;54.316;10.182;2023-03-01T10:04:12;3.40;99.90
37478;DHT22;23334;54.316;10.182;2023-03-01T10:06:46;3.90;99.90
37478;DHT22;23334;54.316;10.182;2023-03-01T10:09:18;3.70;99.90
37478;DHT22;23334;54.316;10.182;2023-03-01T10:11:51;4.40;99.90
37478;DHT22;23334;54.316;10.182;2023-03-01T10:17:08;4.00;99.90
37478;DHT22;23334;54.316;10.182;2023-03-01T10:19:43;3.80;99.90
37478;DHT22;23334;54.316;10.182;2023-03-01T10:22:29;3.60;99.90
37478;DHT22;23334;54.316;10.182;2023-03-01T10:24:58;4.00;99.90
37478;DHT22;23334;54.316;10.182;2023-03-01T10:27:37;3.90;99.90
37478;DHT22;23334;54.316;10.182;2023-03-01T10:30:17;3.90;99.90
37478;DHT22;23334;54.316;10.182;2023-03-01T10:32:45;4.20;99.90
37478;DHT22;23334;54.316;10.182;2023-03-01T10:35:33;3.90;99.90
37478;DHT22;23334;54.316;10.182;2023-03-01T10:38:05;3.60;99.90
37478;DHT22;23334;54.316;10.182;2023-03-01T10:40:32;3.90;99.90
37478;DHT22;23334;54.316;10.182;2023-03-01T10:42:59;3.90;99.90
37478;DHT22;23334;54.316;10.182;2023-03-01T10:48:11;3.70;99.90
37478;DHT22;23334;54.316;10.182;2023-03-01T10:50:40;4.10;99.90
37478;DHT22;23334;54.316;10.182;2023-03-01T10:56:10;4.40;99.90
37478;DHT22;23334;54.316;10.182;2023-03-01T10:58:38;4.50;99.90
37478;DHT22;23334;54.316;10.182;2023-03-01T11:08:48;4.60;99.90
37478;DHT22;23334;54.316;10.182;2023-03-01T11:16:48;4.20;99.90
37478;DHT22;23334;54.316;10.182;2023-03-01T11:19:20;4.00;99.90
37478;DHT22;23334;54.316;10.182;2023-03-01T11:22:14;4.20;99.90
37478;DHT22;23334;54.316;10.182;2023-03-01T11:24:48;4.20;99.90
37478;DHT22;23334;54.316;10.182;2023-03-01T11:27:36;4.50;99.90
37478;DHT22;23334;54.316;10.182;2023-03-01T11:30:07;4.40;99.90
37478;DHT22;23334;54.316;10.182;2023-03-01T11:32:47;4.50;99.90
37478;DHT22;23334;54.316;10.182;2023-03-01T11:35:22;4.50;99.90
37478;DHT22;23334;54.316;10.182;2023-03-01T11:40:57;4.60;99.90
37478;DHT22;23334;54.316;10.182;2023-03-01T11:43:59;1.80;99.90
37478;DHT22;23334;54.316;10.182;2023-03-01T11:49:21;4.40;99.90
37478;DHT22;23334;54.316;10.182;2023-03-01T11:52:16;4.30;99.90
37478;DHT22;23334;54.316;10.182;2023-03-01T12:06:21;4.90;99.90
37478;DHT22;23334;54.316;10.182;2023-03-01T12:14:13;4.80;99.90
37478;DHT22;23334;54.316;10.182;2023-03-01T12:19:45;5.00;99.90
37478;DHT22;23334;54.316;10.182;2023-03-01T12:22:35;5.00;99.90
37478;DHT22;23334;54.316;10.182;2023-03-01T12:25:28;5.00;99.90
37478;DHT22;23334;54.316;10.182;2023-03-01T12:36:16;4.90;99.90
37478;DHT22;23334;54.316;10.182;2023-03-01T12:39:07;4.80;99.90
37478;DHT22;23334;54.316;10.182;2023-03-01T12:44:37;4.90;99.90
37478;DHT22;23334;54.316;10.182;2023-03-01T12:49:52;5.50;99.90
37478;DHT22;23334;54.316;10.182;2023-03-01T12:52:32;4.80;99.90
37478;DHT22;23334;54.316;10.182;2023-03-01T12:55:01;4.50;99.90
37478;DHT22;23334;54.316;10.182;2023-03-01T12:57:38;4.50;99.90
37478;DHT22;23334;54.316;10.182;2023-03-01T13:00:15;4.50;99.90
37478;DHT22;23334;54.316;10.182;2023-03-01T13:08:26;3.90;99.90
37478;DHT22;23334;54.316;10.182;2023-03-01T13:10:59;4.00;99.90
37478;DHT22;23334;54.316;10.182;2023-03-01T13:13:27;4.10;99.90
37478;DHT22;23334;54.316;10.182;2023-03-01T13:15:53;4.20;99.90
37478;DHT22;23334;54.316;10.182;2023-03-01T13:20:52;4.20;99.90
37478;DHT22;23334;54.316;10.182;2023-03-01T13:33:59;4.00;99.90
37478;DHT22;23334;54.316;10.182;2023-03-01T13:39:02;4.00;99.90
37478;DHT22;23334;54.316;10.182;2023-03-01T13:46:47;4.10;99.90
37478;DHT22;23334;54.316;10.182;2023-03-01T13:49:16;4.10;99.90
37478;DHT22;23334;54.316;10.182;2023-03-01T13:51:46;3.90;99.90
37478;DHT22;23334;54.316;10.182;2023-03-01T13:54:14;3.60;99.90
37478;DHT22;23334;54.316;10.182;2023-03-01T13:56:40;3.60;99.90
37478;DHT22;23334;54.316;10.182;2023-03-01T13:59:17;3.70;99.90
37478;DHT22;23334;54.316;10.182;2023-03-01T14:01:43;3.70;99.90
37478;DHT22;23334;54.316;10.182;2023-03-01T14:04:41;3.80;99.90
37478;DHT22;23334;54.316;10.182;2023-03-01T14:07:11;3.70;99.90
37478;DHT22;23334;54.316;10.182;2023-03-01T14:09:41;3.70;99.90
37478;DHT22;23334;54.316;10.182;2023-03-01T14:12:48;3.60;99.90
37478;DHT22;23334;54.316;10.182;2023-03-01T14:15:25;3.60;99.90
37478;DHT22;23334;54.316;10.182;2023-03-01T14:17:57;3.50;99.90
37478;DHT22;23334;54.316;10.182;2023-03-01T14:20:27;3.50;99.90
37478;DHT22;23334;54.316;10.182;2023-03-01T14:22:55;3.40;99.90
37478;DHT22;23334;54.316;10.182;2023-03-01T14:25:34;3.30;99.90
37478;DHT22;23334;54.316;10.182;2023-03-01T14:28:23;3.20;99.90
37478;DHT22;23334;54.316;10.182;2023-03-01T14:30:52;3.20;99.90
37478;DHT22;23334;54.316;10.182;2023-03-01T14:36:11;2.90;99.90
37478;DHT22;23334;54.316;10.182;2023-03-01T14:38:45;2.80;99.90
37478;DHT22;23334;54.316;10.182;2023-03-01T14:41:21;2.70;99.90
37478;DHT22;23334;54.316;10.182;2023-03-01T14:44:07;2.50;99.90
37478;DHT22;23334;54.316;10.182;2023-03-01T14:46:42;2.50;99.90
37478;DHT22;23334;54.316;10.182;2023-03-01T14:49:20;2.50;99.90
37478;DHT22;23334;54.316;10.182;2023-03-01T14:52:05;2.50;99.90
37478;DHT22;23334;54.316;10.182;2023-03-01T14:54:44;2.60;99.90
37478;DHT22;23334;54.316;10.182;2023-03-01T14:57:20;2.60;99.90
37478;DHT22;23334;54.316;10.182;2023-03-01T14:59:52;2.70;99.90
37478;DHT22;23334;54.316;10.182;2023-03-01T15:02:22;2.70;99.90
37478;DHT22;23334;54.316;10.182;2023-03-01T15:04:52;2.70;99.90
37478;DHT22;23334;54.316;10.182;2023-03-01T15:07:18;2.70;99.90
37478;DHT22;23334;54.316;10.182;2023-03-01T15:09:45;2.80;99.90
37478;DHT22;23334;54.316;10.182;2023-03-01T15:12:35;2.60;99.90
37478;DHT22;23334;54.316;10.182;2023-03-01T15:17:32;2.80;99.90
37478;DHT22;23334;54.316;10.182;2023-03-01T15:20:00;2.80;99.90
37478;DHT22;23334;54.316;10.182;2023-03-01T15:22:28;2.80;99.90
37478;DHT22;23334;54.316;10.182;2023-03-01T15:24:54;2.80;99.90
37478;DHT22;23334;54.316;10.182;2023-03-01T15:27:23;2.80;99.90
37478;DHT22;23334;54.316;10.182;2023-03-01T15:29:51;2.80;99.90
37478;DHT22;23334;54.316;10.182;2023-03-01T15:32:35;2.70;99.90
37478;DHT22;23334;54.316;10.182;2023-03-01T15:35:35;2.80;99.90
37478;DHT22;23334;54.316;10.182;2023-03-01T15:40:30;2.80;99.90
37478;DHT22;23334;54.316;10.182;2023-03-01T15:43:04;2.80;99.90
37478;DHT22;23334;54.316;10.182;2023-03-01T15:45:31;2.80;99.90
37478;DHT22;23334;54.316;10.182;2023-03-01T15:48:04;2.80;99.90
37478;DHT22;23334;54.316;10.182;2023-03-01T15:50:33;2.80;99.90
37478;DHT22;23334;54.316;10.182;2023-03-01T15:55:28;2.70;99.90
37478;DHT22;23334;54.316;10.182;2023-03-01T15:58:00;2.70;99.90
37478;DHT22;23334;54.316;10.182;2023-03-01T16:00:26;2.60;99.90
37478;DHT22;23334;54.316;10.182;2023-03-01T16:02:52;2.90;99.90
37478;DHT22;23334;54.316;10.182;2023-03-01T16:07:45;2.50;99.90
37478;DHT22;23334;54.316;10.182;2023-03-01T16:10:11;2.40;99.90
37478;DHT22;23334;54.316;10.182;2023-03-01T16:12:38;2.40;99.90
37478;DHT22;23334;54.316;10.182;2023-03-01T16:15:12;2.40;99.90
37478;DHT22;23334;54.316;10.182;2023-03-01T16:17:39;2.40;99.90
37478;DHT22;23334;54.316;10.182;2023-03-01T16:22:30;2.40;99.90
37478;DHT22;23334;54.316;10.182;2023-03-01T16:27:22;2.40;99.90
37478;DHT22;23334;54.316;10.182;2023-03-01T16:32:13;2.40;99.90
37478;DHT22;23334;54.316;10.182;2023-03-01T16:34:39;2.40;99.90
37478;DHT22;23334;54.316;10.182;2023-03-01T16:37:04;2.40;99.90
37478;DHT22;23334;54.316;10.182;2023-03-01T16:39:30;2.50;99.90
37478;DHT22;23334;54.316;10.182;2023-03-01T16:41:55;2.30;99.90
37478;DHT22;23334;54.316;10.182;2023-03-01T16:44:20;2.30;99.90
37478;DHT22;23334;54.316;10.182;2023-03-01T16:46:48;2.30;99.90
37478;DHT22;23334;54.316;10.182;2023-03-01T16:51:40;2.30;99.90
37478;DHT22;23334;54.316;10.182;2023-03-01T16:54:05;2.40;99.90
37478;DHT22;23334;54.316;10.182;2023-03-01T16:56:31;2.40;99.90
37478;DHT22;23334;54.316;10.182;2023-03-01T16:58:59;2.40;99.90
37478;DHT22;23334;54.316;10.182;2023-03-01T17:01:24;2.30;99.90
37478;DHT22;23334;54.316;10.182;2023-03-01T17:03:51;2.40;99.90
37478;DHT22;23334;54.316;10.182;2023-03-01T17:06:20;2.40;99.90
37478;DHT22;23334;54.316;10.182;2023-03-01T17:08:46;2.40;99.90
37478;DHT22;23334;54.316;10.182;2023-03-01T17:11:14;2.40;99.90
37478;DHT22;23334;54.316;10.182;2023-03-01T17:16:08;2.40;99.90
37478;DHT22;23334;54.316;10.182;2023-03-01T17:18:35;2.40;99.90
37478;DHT22;23334;54.316;10.182;2023-03-01T17:21:01;2.40;99.90
37478;DHT22;23334;54.316;10.182;2023-03-01T17:23:28;2.40;99.90
37478;DHT22;23334;54.316;10.182;2023-03-01T17:25:54;5.60;99.90
37478;DHT22;23334;54.316;10.182;2023-03-01T17:28:24;2.30;99.90
37478;DHT22;23334;54.316;10.182;2023-03-01T17:30:50;2.40;99.90
37478;DHT22;23334;54.316;10.182;2023-03-01T17:33:16;2.40;99.90
37478;DHT22;23334;54.316;10.182;2023-03-01T17:35:41;2.40;99.90
37478;DHT22;23334;54.316;10.182;2023-03-01T17:38:07;2.40;99.90
37478;DHT22;23334;54.316;10.182;2023-03-01T17:40:33;2.20;99.90
37478;DHT22;23334;54.316;10.182;2023-03-01T17:43:00;2.40;99.90
37478;DHT22;23334;54.316;10.182;2023-03-01T17:45:26;2.20;99.90
37478;DHT22;23334;54.316;10.182;2023-03-01T17:47:51;2.50;99.90
37478;DHT22;23334;54.316;10.182;2023-03-01T17:50:17;2.50;99.90
37478;DHT22;23334;54.316;10.182;2023-03-01T17:52:42;2.50;99.90
37478;DHT22;23334;54.316;10.182;2023-03-01T17:57:37;2.50;99.90
37478;DHT22;23334;54.316;10.182;2023-03-01T18:00:03;2.50;99.90
37478;DHT22;23334;54.316;10.182;2023-03-01T18:02:31;2.60;99.90